sensor_id;sensor_type;location;lat;lon;timestamp;temperature;humidity
1602;DHT22;794;48.592;9.634;2023-06-26T00:01:19;15.10;1.00
1602;DHT22;794;48.592;9.634;2023-06-26T00:03:48;15.00;1.00
1602;DHT22;794;48.592;9.634;2023-06-26T00:06:18;15.00;1.00
1602;DHT22;794;48.592;9.634;2023-06-26T00:08:45;15.00;1.00
1602;DHT22;794;48.592;9.634;2023-06-26T00:11:12;15.10;1.00
1602;DHT22;794;48.592;9.634;2023-06-26T00:13:39;15.00;1.00
1602;DHT22;794;48.592;9.634;2023-06-26T00:16:07;15.00;1.00
1602;DHT22;794;48.592;9.634;2023-06-26T00:18:34;15.00;1.00
1602;DHT22;794;48.592;9.634;2023-06-26T00:21:03;15.10;1.00
1602;DHT22;794;48.592;9.634;2023-06-26T00:23:35;14.90;1.00
1602;DHT22;794;48.592;9.634;2023-06-26T00:26:03;14.90;1.00
1602;DHT22;794;48.592;9.634;2023-06-26T00:28:32;14.80;1.00
1602;DHT22;794;48.592;9.634;2023-06-26T00:31:02;15.10;1.00
1602;DHT22;794;48.592;9.634;2023-06-26T00:33:29;14.80;1.00
1602;DHT22;794;48.592;9.634;2023-06-26T00:35:56;14.80;1.00
1602;DHT22;794;48.592;9.634;2023-06-26T00:38:25;14.80;1.00
1602;DHT22;794;48.592;9.634;2023-06-26T00:40:52;15.10;1.00
1602;DHT22;794;48.592;9.634;2023-06-26T00:43:20;14.80;1.00
1602;DHT22;794;48.592;9.634;2023-06-26T00:45:47;14.80;1.00
1602;DHT22;794;48.592;9.634;2023-06-26T00:48:14;15.00;1.00
1602;DHT22;794;48.592;9.634;2023-06-26T00:50:41;14.80;1.00
1602;DHT22;794;48.592;9.634;2023-06-26T00:53:09;14.80;1.00
1602;DHT22;794;48.592;9.634;2023-06-26T00:55:39;14.40;1.00
1602;DHT22;794;48.592;9.634;2023-06-26T00:58:08;14.60;1.00
1602;DHT22;794;48.592;9.634;2023-06-26T01:00:35;14.60;1.00
1602;DHT22;794;48.592;9.634;2023-06-26T01:03:04;14.60;1.00
1602;DHT22;794;48.592;9.634;2023-06-26T01:05:31;14.60;1.00
1602;DHT22;794;48.592;9.634;2023-06-26T01:07:58;14.60;1.00
1602;DHT22;794;48.592;9.634;2023-06-26T01:10:26;14.60;1.00
1602;DHT22;794;48.592;9.634;2023-06-26T01:12:56;14.60;1.00
1602;DHT22;794;48.592;9.634;2023-06-26T01:15:24;14.60;1.00
1602;DHT22;794;48.592;9.634;2023-06-26T01:17:55;14.60;1.00
1602;DHT22;794;48.592;9.634;2023-06-26T01:20:25;14.50;1.00
1602;DHT22;794;48.592;9.634;2023-06-26T01:23:00;14.60;1.00
1602;DHT22;794;48.592;9.634;2023-06-26T01:25:35;14.50;1.00
1602;DHT22;794;48.592;9.634;2023-06-26T01:28:06;14.50;1.00
1602;DHT22;794;48.592;9.634;2023-06-26T01:30:34;14.60;1.00
1602;DHT22;794;48.592;9.634;2023-06-26T01:33:03;14.10;1.00
1602;DHT22;794;48.592;9.634;2023-06-26T01:35:31;13.10;1.00
1602;DHT22;794;48.592;9.634;2023-06-26T01:38:12;14.30;1.00
1602;DHT22;794;48.592;9.634;2023-06-26T01:40:39;14.40;1.00
1602;DHT22;794;48.592;9.634;2023-06-26T01:43:16;14.40;1.00
1602;DHT22;794;48.592;9.634;2023-06-26T01:45:46;14.30;1.00
1602;DHT22;794;48.592;9.634;2023-06-26T01:48:17;14.30;1.00
1602;DHT22;794;48.592;9.634;2023-06-26T01:50:46;14.30;1.00
1602;DHT22;794;48.592;9.634;2023-06-26T01:53:18;14.30;1.00
1602;DHT22;794;48.592;9.634;2023-06-26T01:55:48;14.30;1.00
1602;DHT22;794;48.592;9.634;2023-06-26T01:58:20;14.20;1.00
1602;DHT22;794;48.592;9.634;2023-06-26T02:00:54;14.20;1.00
1602;DHT22;794;48.592;9.634;2023-06-26T02:03:22;14.20;1.00
1602;DHT22;794;48.592;9.634;2023-06-26T02:05:53;14.20;1.00
1602;DHT22;794;48.592;9.634;2023-06-26T02:08:22;13.60;1.00
1602;DHT22;794;48.592;9.634;2023-06-26T02:10:49;14.10;1.00
1602;DHT22;794;48.592;9.634;2023-06-26T02:13:18;14.10;1.00
1602;DHT22;794;48.592;9.634;2023-06-26T02:15:47;14.10;1.00
1602;DHT22;794;48.592;9.634;2023-06-26T02:18:25;14.20;1.00
1602;DHT22;794;48.592;9.634;2023-06-26T02:20:52;14.10;1.00
1602;DHT22;794;48.592;9.634;2023-06-26T02:23:19;14.20;1.00
1602;DHT22;794;48.592;9.634;2023-06-26T02:25:48;14.00;1.00
1602;DHT22;794;48.592;9.634;2023-06-26T02:28:19;14.00;1.00
1602;DHT22;794;48.592;9.634;2023-06-26T02:30:48;14.00;1.00
1602;DHT22;794;48.592;9.634;2023-06-26T02:33:15;14.10;1.00
1602;DHT22;794;48.592;9.634;2023-06-26T02:35:42;13.90;1.00
1602;DHT22;794;48.592;9.634;2023-06-26T02:38:09;13.90;1.00
1602;DHT22;794;48.592;9.634;2023-06-26T02:40:36;13.90;1.00
1602;DHT22;794;48.592;9.634;2023-06-26T02:43:03;13.40;1.00
1602;DHT22;794;48.592;9.634;2023-06-26T02:45:31;13.90;1.00
1602;DHT22;794;48.592;9.634;2023-06-26T02:48:02;13.90;1.00
1602;DHT22;794;48.592;9.634;2023-06-26T02:50:28;14.10;1.00
1602;DHT22;794;48.592;9.634;2023-06-26T02:52:55;13.90;1.00
1602;DHT22;794;48.592;9.634;2023-06-26T02:55:25;13.90;1.00
1602;DHT22;794;48.592;9.634;2023-06-26T02:57:52;13.90;1.00
1602;DHT22;794;48.592;9.634;2023-06-26T03:00:19;13.90;1.00
1602;DHT22;794;48.592;9.634;2023-06-26T03:02:46;13.90;1.00
1602;DHT22;794;48.592;9.634;2023-06-26T03:05:15;13.90;1.00
1602;DHT22;794;48.592;9.634;2023-06-26T03:07:42;13.90;1.00
1602;DHT22;794;48.592;9.634;2023-06-26T03:10:09;13.80;1.00
1602;DHT22;794;48.592;9.634;2023-06-26T03:12:36;13.80;1.00
1602;DHT22;794;48.592;9.634;2023-06-26T03:15:05;13.90;1.00
1602;DHT22;794;48.592;9.634;2023-06-26T03:17:33;13.90;1.00
1602;DHT22;794;48.592;9.634;2023-06-26T03:20:00;13.90;1.00
1602;DHT22;794;48.592;9.634;2023-06-26T03:22:29;14.00;1.00
1602;DHT22;794;48.592;9.634;2023-06-26T03:24:56;13.90;1.00
1602;DHT22;794;48.592;9.634;2023-06-26T03:27:23;12.80;1.00
1602;DHT22;794;48.592;9.634;2023-06-26T03:29:52;13.90;1.00
1602;DHT22;794;48.592;9.634;2023-06-26T03:32:19;14.00;1.00
1602;DHT22;794;48.592;9.634;2023-06-26T03:34:46;14.00;1.00
1602;DHT22;794;48.592;9.634;2023-06-26T03:37:13;14.10;1.00
1602;DHT22;794;48.592;9.634;2023-06-26T03:39:41;15.30;1.00
1602;DHT22;794;48.592;9.634;2023-06-26T03:42:08;14.20;1.00
1602;DHT22;794;48.592;9.634;2023-06-26T03:44:35;14.20;1.00
1602;DHT22;794;48.592;9.634;2023-06-26T03:47:02;14.20;1.00
1602;DHT22;794;48.592;9.634;2023-06-26T03:49:29;14.20;1.00
1602;DHT22;794;48.592;9.634;2023-06-26T03:51:56;14.30;1.00
1602;DHT22;794;48.592;9.634;2023-06-26T03:54:23;14.30;1.00
1602;DHT22;794;48.592;9.634;2023-06-26T03:56:51;14.30;1.00
1602;DHT22;794;48.592;9.634;2023-06-26T03:59:18;14.40;1.00
1602;DHT22;794;48.592;9.634;2023-06-26T04:01:45;14.40;1.00
1602;DHT22;794;48.592;9.634;2023-06-26T04:04:12;14.60;1.00
1602;DHT22;794;48.592;9.634;2023-06-26T04:06:39;14.60;1.00
1602;DHT22;794;48.592;9.634;2023-06-26T04:09:06;14.70;1.00
1602;DHT22;794;48.592;9.634;2023-06-26T04:11:33;14.70;1.00
1602;DHT22;794;48.592;9.634;2023-06-26T04:14:04;14.40;1.00
1602;DHT22;794;48.592;9.634;2023-06-26T04:16:31;14.80;1.00
1602;DHT22;794;48.592;9.634;2023-06-26T04:18:58;15.00;1.00
1602;DHT22;794;48.592;9.634;2023-06-26T04:21:25;14.90;1.00
1602;DHT22;794;48.592;9.634;2023-06-26T04:23:52;15.20;1.00
1602;DHT22;794;48.592;9.634;2023-06-26T04:26:19;15.00;1.00
1602;DHT22;794;48.592;9.634;2023-06-26T04:28:46;15.10;1.00
1602;DHT22;794;48.592;9.634;2023-06-26T04:31:19;15.30;1.00
1602;DHT22;794;48.592;9.634;2023-06-26T04:33:46;16.10;1.00
1602;DHT22;794;48.592;9.634;2023-06-26T04:36:16;17.70;1.00
1602;DHT22;794;48.592;9.634;2023-06-26T04:38:43;19.60;1.00
1602;DHT22;794;48.592;9.634;2023-06-26T04:41:10;21.50;1.00
1602;DHT22;794;48.592;9.634;2023-06-26T04:43:39;23.00;1.00
1602;DHT22;794;48.592;9.634;2023-06-26T04:46:08;24.50;1.00
1602;DHT22;794;48.592;9.634;2023-06-26T04:48:36;25.50;1.00
1602;DHT22;794;48.592;9.634;2023-06-26T04:51:03;26.60;1.00
1602;DHT22;794;48.592;9.634;2023-06-26T04:53:30;27.70;1.00
1602;DHT22;794;48.592;9.634;2023-06-26T04:55:58;28.90;1.00
1602;DHT22;794;48.592;9.634;2023-06-26T04:58:29;29.00;1.00
1602;DHT22;794;48.592;9.634;2023-06-26T05:03:51;31.60;1.00
1602;DHT22;794;48.592;9.634;2023-06-26T05:06:27;32.40;1.00
1602;DHT22;794;48.592;9.634;2023-06-26T05:08:54;32.90;1.00
1602;DHT22;794;48.592;9.634;2023-06-26T05:11:23;32.10;1.00
1602;DHT22;794;48.592;9.634;2023-06-26T05:13:50;30.80;1.00
1602;DHT22;794;48.592;9.634;2023-06-26T05:16:20;29.00;1.00
1602;DHT22;794;48.592;9.634;2023-06-26T05:18:49;27.60;1.00
1602;DHT22;794;48.592;9.634;2023-06-26T05:21:22;26.50;1.00
1602;DHT22;794;48.592;9.634;2023-06-26T05:23:50;25.50;1.00
1602;DHT22;794;48.592;9.634;2023-06-26T05:26:19;24.50;1.00
1602;DHT22;794;48.592;9.634;2023-06-26T05:28:46;23.70;1.00
1602;DHT22;794;48.592;9.634;2023-06-26T05:31:14;22.60;1.00
1602;DHT22;794;48.592;9.634;2023-06-26T05:33:43;22.40;1.00
1602;DHT22;794;48.592;9.634;2023-06-26T05:36:15;22.00;1.00
1602;DHT22;794;48.592;9.634;2023-06-26T05:38:45;21.70;1.00
1602;DHT22;794;48.592;9.634;2023-06-26T05:41:12;21.60;1.00
1602;DHT22;794;48.592;9.634;2023-06-26T05:43:39;21.40;1.00
1602;DHT22;794;48.592;9.634;2023-06-26T05:46:07;21.30;1.00
1602;DHT22;794;48.592;9.634;2023-06-26T05:48:34;21.30;1.00
1602;DHT22;794;48.592;9.634;2023-06-26T05:51:02;21.40;1.00
1602;DHT22;794;48.592;9.634;2023-06-26T05:53:32;21.30;1.00
1602;DHT22;794;48.592;9.634;2023-06-26T05:56:02;21.30;1.00
1602;DHT22;794;48.592;9.634;2023-06-26T05:58:30;21.50;1.00
1602;DHT22;794;48.592;9.634;2023-06-26T06:00:57;21.30;1.00
1602;DHT22;794;48.592;9.634;2023-06-26T06:03:24;21.70;1.00
1602;DHT22;794;48.592;9.634;2023-06-26T06:05:51;21.90;1.00
1602;DHT22;794;48.592;9.634;2023-06-26T06:08:21;21.90;1.00
1602;DHT22;794;48.592;9.634;2023-06-26T06:10:48;22.50;1.00
1602;DHT22;794;48.592;9.634;2023-06-26T06:13:18;25.00;1.00
1602;DHT22;794;48.592;9.634;2023-06-26T06:15:46;28.20;1.00
1602;DHT22;794;48.592;9.634;2023-06-26T06:18:13;30.80;1.00
1602;DHT22;794;48.592;9.634;2023-06-26T06:20:42;32.60;1.00
1602;DHT22;794;48.592;9.634;2023-06-26T06:23:13;35.40;1.00
1602;DHT22;794;48.592;9.634;2023-06-26T06:25:43;37.10;1.00
1602;DHT22;794;48.592;9.634;2023-06-26T06:28:10;37.40;1.00
1602;DHT22;794;48.592;9.634;2023-06-26T06:30:38;38.70;1.00
1602;DHT22;794;48.592;9.634;2023-06-26T06:33:05;40.30;1.00
1602;DHT22;794;48.592;9.634;2023-06-26T06:35:32;38.70;1.00
1602;DHT22;794;48.592;9.634;2023-06-26T06:37:59;38.80;1.00
1602;DHT22;794;48.592;9.634;2023-06-26T06:40:26;38.20;1.00
1602;DHT22;794;48.592;9.634;2023-06-26T06:42:53;40.00;1.00
1602;DHT22;794;48.592;9.634;2023-06-26T06:45:20;41.50;1.00
1602;DHT22;794;48.592;9.634;2023-06-26T06:47:52;42.80;1.00
1602;DHT22;794;48.592;9.634;2023-06-26T06:50:19;43.60;1.00
1602;DHT22;794;48.592;9.634;2023-06-26T06:55:13;45.30;1.00
1602;DHT22;794;48.592;9.634;2023-06-26T07:00:09;45.10;1.00
1602;DHT22;794;48.592;9.634;2023-06-26T07:02:37;46.10;1.00
1602;DHT22;794;48.592;9.634;2023-06-26T07:05:06;45.60;1.00
1602;DHT22;794;48.592;9.634;2023-06-26T07:07:36;45.60;1.00
1602;DHT22;794;48.592;9.634;2023-06-26T07:10:05;46.70;1.00
1602;DHT22;794;48.592;9.634;2023-06-26T07:12:33;46.10;1.00
1602;DHT22;794;48.592;9.634;2023-06-26T07:15:00;46.40;1.00
1602;DHT22;794;48.592;9.634;2023-06-26T07:17:28;46.00;1.00
1602;DHT22;794;48.592;9.634;2023-06-26T07:19:59;45.70;1.00
1602;DHT22;794;48.592;9.634;2023-06-26T07:22:31;45.40;1.00
1602;DHT22;794;48.592;9.634;2023-06-26T07:24:58;45.50;1.00
1602;DHT22;794;48.592;9.634;2023-06-26T07:27:25;46.20;1.00
1602;DHT22;794;48.592;9.634;2023-06-26T07:29:54;45.90;1.00
1602;DHT22;794;48.592;9.634;2023-06-26T07:32:21;45.10;1.00
1602;DHT22;794;48.592;9.634;2023-06-26T07:34:53;44.90;1.00
1602;DHT22;794;48.592;9.634;2023-06-26T07:37:20;45.40;1.00
1602;DHT22;794;48.592;9.634;2023-06-26T07:39:52;46.30;1.00
1602;DHT22;794;48.592;9.634;2023-06-26T07:42:19;46.00;1.00
1602;DHT22;794;48.592;9.634;2023-06-26T07:44:49;45.10;1.00
1602;DHT22;794;48.592;9.634;2023-06-26T07:47:16;46.00;1.00
1602;DHT22;794;48.592;9.634;2023-06-26T07:49:45;45.20;1.00
1602;DHT22;794;48.592;9.634;2023-06-26T07:52:12;45.80;1.00
1602;DHT22;794;48.592;9.634;2023-06-26T07:54:40;44.70;1.00
1602;DHT22;794;48.592;9.634;2023-06-26T07:57:09;43.30;1.00
1602;DHT22;794;48.592;9.634;2023-06-26T07:59:37;42.40;1.00
1602;DHT22;794;48.592;9.634;2023-06-26T08:02:04;43.20;1.00
1602;DHT22;794;48.592;9.634;2023-06-26T08:04:31;43.50;1.00
1602;DHT22;794;48.592;9.634;2023-06-26T08:07:06;42.90;1.00
1602;DHT22;794;48.592;9.634;2023-06-26T08:09:33;42.60;1.00
1602;DHT22;794;48.592;9.634;2023-06-26T08:12:16;42.90;1.00
1602;DHT22;794;48.592;9.634;2023-06-26T08:14:43;43.40;1.00
1602;DHT22;794;48.592;9.634;2023-06-26T08:17:13;43.50;1.00
1602;DHT22;794;48.592;9.634;2023-06-26T08:19:40;41.80;1.00
1602;DHT22;794;48.592;9.634;2023-06-26T08:22:07;42.60;1.00
1602;DHT22;794;48.592;9.634;2023-06-26T08:24:34;42.70;1.00
1602;DHT22;794;48.592;9.634;2023-06-26T08:27:02;42.70;1.00
1602;DHT22;794;48.592;9.634;2023-06-26T08:29:31;42.80;1.00
1602;DHT22;794;48.592;9.634;2023-06-26T08:31:58;43.80;1.00
1602;DHT22;794;48.592;9.634;2023-06-26T08:34:27;43.90;1.00
1602;DHT22;794;48.592;9.634;2023-06-26T08:36:54;44.40;1.00
1602;DHT22;794;48.592;9.634;2023-06-26T08:39:21;45.40;1.00
1602;DHT22;794;48.592;9.634;2023-06-26T08:41:52;45.90;1.00
1602;DHT22;794;48.592;9.634;2023-06-26T08:44:21;45.10;1.00
1602;DHT22;794;48.592;9.634;2023-06-26T08:46:51;43.00;1.00
1602;DHT22;794;48.592;9.634;2023-06-26T08:49:36;44.20;1.00
1602;DHT22;794;48.592;9.634;2023-06-26T08:52:12;44.10;1.00
1602;DHT22;794;48.592;9.634;2023-06-26T08:54:45;43.30;1.00
1602;DHT22;794;48.592;9.634;2023-06-26T08:57:15;41.90;1.00
1602;DHT22;794;48.592;9.634;2023-06-26T08:59:44;43.50;1.00
1602;DHT22;794;48.592;9.634;2023-06-26T09:02:13;42.70;1.00
1602;DHT22;794;48.592;9.634;2023-06-26T09:04:41;43.40;1.00
1602;DHT22;794;48.592;9.634;2023-06-26T09:07:29;42.70;1.00
1602;DHT22;794;48.592;9.634;2023-06-26T09:09:56;42.60;1.00
1602;DHT22;794;48.592;9.634;2023-06-26T09:12:24;43.70;1.00
1602;DHT22;794;48.592;9.634;2023-06-26T09:14:58;44.10;1.00
1602;DHT22;794;48.592;9.634;2023-06-26T09:17:32;43.50;1.00
1602;DHT22;794;48.592;9.634;2023-06-26T09:20:00;44.10;1.00
1602;DHT22;794;48.592;9.634;2023-06-26T09:22:33;43.60;1.00
1602;DHT22;794;48.592;9.634;2023-06-26T09:25:04;43.40;1.00
1602;DHT22;794;48.592;9.634;2023-06-26T09:27:32;44.20;1.00
1602;DHT22;794;48.592;9.634;2023-06-26T09:30:02;43.60;1.00
1602;DHT22;794;48.592;9.634;2023-06-26T09:32:31;43.40;1.00
1602;DHT22;794;48.592;9.634;2023-06-26T09:35:02;43.70;1.00
1602;DHT22;794;48.592;9.634;2023-06-26T09:37:29;43.70;1.00
1602;DHT22;794;48.592;9.634;2023-06-26T09:39:56;43.50;1.00
1602;DHT22;794;48.592;9.634;2023-06-26T09:42:24;43.10;1.00
1602;DHT22;794;48.592;9.634;2023-06-26T09:44:51;43.60;1.00
1602;DHT22;794;48.592;9.634;2023-06-26T09:47:19;43.50;1.00
1602;DHT22;794;48.592;9.634;2023-06-26T09:49:47;43.10;1.00
1602;DHT22;794;48.592;9.634;2023-06-26T09:52:18;42.60;1.00
1602;DHT22;794;48.592;9.634;2023-06-26T09:54:46;42.60;1.00
1602;DHT22;794;48.592;9.634;2023-06-26T09:57:15;42.90;1.00
1602;DHT22;794;48.592;9.634;2023-06-26T09:59:43;43.30;1.00
1602;DHT22;794;48.592;9.634;2023-06-26T10:02:11;43.30;1.00
1602;DHT22;794;48.592;9.634;2023-06-26T10:04:38;41.00;1.00
1602;DHT22;794;48.592;9.634;2023-06-26T10:07:12;41.70;1.00
1602;DHT22;794;48.592;9.634;2023-06-26T10:09:41;41.30;1.00
1602;DHT22;794;48.592;9.634;2023-06-26T10:12:15;40.40;1.00
1602;DHT22;794;48.592;9.634;2023-06-26T10:14:45;40.20;1.00
1602;DHT22;794;48.592;9.634;2023-06-26T10:17:16;40.80;1.00
1602;DHT22;794;48.592;9.634;2023-06-26T10:19:49;40.70;1.00
1602;DHT22;794;48.592;9.634;2023-06-26T10:22:20;41.00;1.00
1602;DHT22;794;48.592;9.634;2023-06-26T10:24:49;41.00;1.00
1602;DHT22;794;48.592;9.634;2023-06-26T10:27:19;41.00;1.00
1602;DHT22;794;48.592;9.634;2023-06-26T10:29:48;39.20;1.00
1602;DHT22;794;48.592;9.634;2023-06-26T10:32:17;38.60;1.00
1602;DHT22;794;48.592;9.634;2023-06-26T10:34:45;36.60;1.00
1602;DHT22;794;48.592;9.634;2023-06-26T10:37:12;36.20;1.00
1602;DHT22;794;48.592;9.634;2023-06-26T10:39:50;35.30;1.00
1602;DHT22;794;48.592;9.634;2023-06-26T10:42:28;33.10;1.00
1602;DHT22;794;48.592;9.634;2023-06-26T10:45:09;32.60;1.00
1602;DHT22;794;48.592;9.634;2023-06-26T10:47:40;31.30;1.00
1602;DHT22;794;48.592;9.634;2023-06-26T10:50:25;31.00;1.00
1602;DHT22;794;48.592;9.634;2023-06-26T10:53:09;30.90;1.00
1602;DHT22;794;48.592;9.634;2023-06-26T10:55:43;30.70;1.00
1602;DHT22;794;48.592;9.634;2023-06-26T10:58:30;30.20;1.00
1602;DHT22;794;48.592;9.634;2023-06-26T11:01:17;30.30;1.00
1602;DHT22;794;48.592;9.634;2023-06-26T11:03:48;30.40;1.00
1602;DHT22;794;48.592;9.634;2023-06-26T11:06:18;30.90;1.00
1602;DHT22;794;48.592;9.634;2023-06-26T11:08:49;30.80;1.00
1602;DHT22;794;48.592;9.634;2023-06-26T11:11:18;31.20;1.00
1602;DHT22;794;48.592;9.634;2023-06-26T11:13:46;31.80;1.00
1602;DHT22;794;48.592;9.634;2023-06-26T11:16:15;32.10;1.00
1602;DHT22;794;48.592;9.634;2023-06-26T11:18:44;32.20;1.00
1602;DHT22;794;48.592;9.634;2023-06-26T11:21:12;32.30;1.00
1602;DHT22;794;48.592;9.634;2023-06-26T11:23:41;32.10;1.00
1602;DHT22;794;48.592;9.634;2023-06-26T11:26:18;31.80;1.00
1602;DHT22;794;48.592;9.634;2023-06-26T11:28:51;31.60;1.00
1602;DHT22;794;48.592;9.634;2023-06-26T11:31:25;30.80;1.00
1602;DHT22;794;48.592;9.634;2023-06-26T11:33:56;30.60;1.00
1602;DHT22;794;48.592;9.634;2023-06-26T11:36:24;30.10;1.00
1602;DHT22;794;48.592;9.634;2023-06-26T11:38:55;30.00;1.00
1602;DHT22;794;48.592;9.634;2023-06-26T11:41:25;29.80;1.00
1602;DHT22;794;48.592;9.634;2023-06-26T11:43:53;29.80;1.00
1602;DHT22;794;48.592;9.634;2023-06-26T11:46:22;29.70;1.00
1602;DHT22;794;48.592;9.634;2023-06-26T11:48:49;29.70;1.00
1602;DHT22;794;48.592;9.634;2023-06-26T11:51:16;29.60;1.00
1602;DHT22;794;48.592;9.634;2023-06-26T11:53:44;29.60;1.00
1602;DHT22;794;48.592;9.634;2023-06-26T11:56:12;29.30;1.00
1602;DHT22;794;48.592;9.634;2023-06-26T11:58:58;29.10;1.00
1602;DHT22;794;48.592;9.634;2023-06-26T12:01:27;29.10;1.00
1602;DHT22;794;48.592;9.634;2023-06-26T12:03:59;29.00;1.00
1602;DHT22;794;48.592;9.634;2023-06-26T12:06:29;29.00;1.00
1602;DHT22;794;48.592;9.634;2023-06-26T12:08:58;29.50;1.00
1602;DHT22;794;48.592;9.634;2023-06-26T12:11:26;30.20;1.00
1602;DHT22;794;48.592;9.634;2023-06-26T12:13:54;30.40;1.00
1602;DHT22;794;48.592;9.634;2023-06-26T12:16:23;30.50;1.00
1602;DHT22;794;48.592;9.634;2023-06-26T12:18:50;29.20;1.00
1602;DHT22;794;48.592;9.634;2023-06-26T12:21:44;30.50;1.00
1602;DHT22;794;48.592;9.634;2023-06-26T12:24:15;30.60;1.00
1602;DHT22;794;48.592;9.634;2023-06-26T12:26:44;30.20;1.00
1602;DHT22;794;48.592;9.634;2023-06-26T12:29:12;30.40;1.00
1602;DHT22;794;48.592;9.634;2023-06-26T12:31:42;30.10;1.00
1602;DHT22;794;48.592;9.634;2023-06-26T12:34:10;30.40;1.00
1602;DHT22;794;48.592;9.634;2023-06-26T12:36:42;30.30;1.00
1602;DHT22;794;48.592;9.634;2023-06-26T12:39:10;30.20;1.00
1602;DHT22;794;48.592;9.634;2023-06-26T12:41:45;30.50;1.00
1602;DHT22;794;48.592;9.634;2023-06-26T12:44:24;30.50;1.00
1602;DHT22;794;48.592;9.634;2023-06-26T12:46:56;30.80;1.00
1602;DHT22;794;48.592;9.634;2023-06-26T12:49:33;30.90;1.00
1602;DHT22;794;48.592;9.634;2023-06-26T12:52:01;31.00;1.00
1602;DHT22;794;48.592;9.634;2023-06-26T12:54:29;31.20;1.00
1602;DHT22;794;48.592;9.634;2023-06-26T12:56:57;31.00;1.00
1602;DHT22;794;48.592;9.634;2023-06-26T12:59:25;30.80;1.00
1602;DHT22;794;48.592;9.634;2023-06-26T13:01:52;31.00;1.00
1602;DHT22;794;48.592;9.634;2023-06-26T13:04:23;31.40;1.00
1602;DHT22;794;48.592;9.634;2023-06-26T13:06:52;31.60;1.00
1602;DHT22;794;48.592;9.634;2023-06-26T13:09:22;31.80;1.00
1602;DHT22;794;48.592;9.634;2023-06-26T13:11:49;31.80;1.00
1602;DHT22;794;48.592;9.634;2023-06-26T13:14:16;31.60;1.00
1602;DHT22;794;48.592;9.634;2023-06-26T13:16:46;31.20;1.00
1602;DHT22;794;48.592;9.634;2023-06-26T13:19:13;30.70;1.00
1602;DHT22;794;48.592;9.634;2023-06-26T13:21:41;30.40;1.00
1602;DHT22;794;48.592;9.634;2023-06-26T13:24:09;30.60;1.00
1602;DHT22;794;48.592;9.634;2023-06-26T13:26:37;30.80;1.00
1602;DHT22;794;48.592;9.634;2023-06-26T13:29:05;30.80;1.00
1602;DHT22;794;48.592;9.634;2023-06-26T13:31:34;30.80;1.00
1602;DHT22;794;48.592;9.634;2023-06-26T13:34:03;30.70;1.00
1602;DHT22;794;48.592;9.634;2023-06-26T13:36:34;30.70;1.00
1602;DHT22;794;48.592;9.634;2023-06-26T13:39:05;30.00;1.00
1602;DHT22;794;48.592;9.634;2023-06-26T13:41:33;30.70;1.00
1602;DHT22;794;48.592;9.634;2023-06-26T13:44:00;29.30;1.00
1602;DHT22;794;48.592;9.634;2023-06-26T13:46:31;31.00;1.00
1602;DHT22;794;48.592;9.634;2023-06-26T13:48:58;30.90;1.00
1602;DHT22;794;48.592;9.634;2023-06-26T13:51:25;31.00;1.00
1602;DHT22;794;48.592;9.634;2023-06-26T13:53:52;30.90;1.00
1602;DHT22;794;48.592;9.634;2023-06-26T13:56:21;30.70;1.00
1602;DHT22;794;48.592;9.634;2023-06-26T13:58:53;30.40;1.00
1602;DHT22;794;48.592;9.634;2023-06-26T14:01:20;30.20;1.00
1602;DHT22;794;48.592;9.634;2023-06-26T14:03:47;30.30;1.00
1602;DHT22;794;48.592;9.634;2023-06-26T14:06:14;30.40;1.00
1602;DHT22;794;48.592;9.634;2023-06-26T14:08:41;30.30;1.00
1602;DHT22;794;48.592;9.634;2023-06-26T14:11:08;30.30;1.00
1602;DHT22;794;48.592;9.634;2023-06-26T14:13:36;30.30;1.00
1602;DHT22;794;48.592;9.634;2023-06-26T14:16:04;30.50;1.00
1602;DHT22;794;48.592;9.634;2023-06-26T14:18:31;30.30;1.00
1602;DHT22;794;48.592;9.634;2023-06-26T14:20:58;30.30;1.00
1602;DHT22;794;48.592;9.634;2023-06-26T14:23:25;30.20;1.00
1602;DHT22;794;48.592;9.634;2023-06-26T14:25:52;30.10;1.00
1602;DHT22;794;48.592;9.634;2023-06-26T14:28:19;28.20;1.00
1602;DHT22;794;48.592;9.634;2023-06-26T14:30:47;30.20;1.00
1602;DHT22;794;48.592;9.634;2023-06-26T14:33:16;30.50;1.00
1602;DHT22;794;48.592;9.634;2023-06-26T14:35:44;30.90;1.00
1602;DHT22;794;48.592;9.634;2023-06-26T14:38:11;30.50;1.00
1602;DHT22;794;48.592;9.634;2023-06-26T14:40:40;30.40;1.00
1602;DHT22;794;48.592;9.634;2023-06-26T14:43:07;30.60;1.00
1602;DHT22;794;48.592;9.634;2023-06-26T14:45:34;30.30;1.00
1602;DHT22;794;48.592;9.634;2023-06-26T14:48:02;30.00;1.00
1602;DHT22;794;48.592;9.634;2023-06-26T14:50:30;29.60;1.00
1602;DHT22;794;48.592;9.634;2023-06-26T14:52:56;29.30;1.00
1602;DHT22;794;48.592;9.634;2023-06-26T14:55:25;29.30;1.00
1602;DHT22;794;48.592;9.634;2023-06-26T14:57:52;29.20;1.00
1602;DHT22;794;48.592;9.634;2023-06-26T15:00:19;29.30;1.00
1602;DHT22;794;48.592;9.634;2023-06-26T15:02:48;29.20;1.00
1602;DHT22;794;48.592;9.634;2023-06-26T15:05:20;29.00;1.00
1602;DHT22;794;48.592;9.634;2023-06-26T15:07:47;28.90;1.00
1602;DHT22;794;48.592;9.634;2023-06-26T15:10:14;31.10;1.00
1602;DHT22;794;48.592;9.634;2023-06-26T15:12:42;28.80;1.00
1602;DHT22;794;48.592;9.634;2023-06-26T15:15:09;28.80;1.00
1602;DHT22;794;48.592;9.634;2023-06-26T15:17:38;28.60;1.00
1602;DHT22;794;48.592;9.634;2023-06-26T15:20:07;28.10;1.00
1602;DHT22;794;48.592;9.634;2023-06-26T15:22:36;27.70;1.00
1602;DHT22;794;48.592;9.634;2023-06-26T15:25:06;27.70;1.00
1602;DHT22;794;48.592;9.634;2023-06-26T15:27:33;27.90;1.00
1602;DHT22;794;48.592;9.634;2023-06-26T15:30:00;27.80;1.00
1602;DHT22;794;48.592;9.634;2023-06-26T15:32:27;27.70;1.00
1602;DHT22;794;48.592;9.634;2023-06-26T15:34:54;27.60;1.00
1602;DHT22;794;48.592;9.634;2023-06-26T15:37:23;27.60;1.00
1602;DHT22;794;48.592;9.634;2023-06-26T15:39:51;27.50;1.00
1602;DHT22;794;48.592;9.634;2023-06-26T15:42:18;27.30;1.00
1602;DHT22;794;48.592;9.634;2023-06-26T15:44:48;27.20;1.00
1602;DHT22;794;48.592;9.634;2023-06-26T15:47:15;27.20;1.00
1602;DHT22;794;48.592;9.634;2023-06-26T15:49:43;27.30;1.00
1602;DHT22;794;48.592;9.634;2023-06-26T15:52:24;27.30;1.00
1602;DHT22;794;48.592;9.634;2023-06-26T15:54:53;27.50;1.00
1602;DHT22;794;48.592;9.634;2023-06-26T15:57:19;27.60;1.00
1602;DHT22;794;48.592;9.634;2023-06-26T15:59:47;25.80;1.00
1602;DHT22;794;48.592;9.634;2023-06-26T16:02:17;27.60;1.00
1602;DHT22;794;48.592;9.634;2023-06-26T16:04:44;27.60;1.00
1602;DHT22;794;48.592;9.634;2023-06-26T16:07:11;25.70;1.00
1602;DHT22;794;48.592;9.634;2023-06-26T16:09:38;27.30;1.00
1602;DHT22;794;48.592;9.634;2023-06-26T16:12:09;27.50;1.00
1602;DHT22;794;48.592;9.634;2023-06-26T16:14:36;27.20;1.00
1602;DHT22;794;48.592;9.634;2023-06-26T16:17:06;27.00;1.00
1602;DHT22;794;48.592;9.634;2023-06-26T16:19:33;26.90;1.00
1602;DHT22;794;48.592;9.634;2023-06-26T16:22:04;26.70;1.00
1602;DHT22;794;48.592;9.634;2023-06-26T16:24:34;26.80;1.00
1602;DHT22;794;48.592;9.634;2023-06-26T16:27:01;26.90;1.00
1602;DHT22;794;48.592;9.634;2023-06-26T16:29:29;26.80;1.00
1602;DHT22;794;48.592;9.634;2023-06-26T16:32:00;26.90;1.00
1602;DHT22;794;48.592;9.634;2023-06-26T16:34:27;25.50;1.00
1602;DHT22;794;48.592;9.634;2023-06-26T16:36:56;26.50;1.00
1602;DHT22;794;48.592;9.634;2023-06-26T16:39:25;26.20;1.00
1602;DHT22;794;48.592;9.634;2023-06-26T16:41:52;26.10;1.00
1602;DHT22;794;48.592;9.634;2023-06-26T16:44:20;26.00;1.00
1602;DHT22;794;48.592;9.634;2023-06-26T16:46:53;25.90;1.00
1602;DHT22;794;48.592;9.634;2023-06-26T16:49:20;25.90;1.00
1602;DHT22;794;48.592;9.634;2023-06-26T16:51:47;26.00;1.00
1602;DHT22;794;48.592;9.634;2023-06-26T16:54:15;25.80;1.00